createdAt,value
2023-09-29T00:01:16.116Z,19.60
2023-09-29T00:05:18.437Z,19.60
2023-09-29T00:09:20.027Z,19.60
2023-09-29T00:13:21.442Z,19.50
2023-09-29T00:17:23.119Z,19.50
2023-09-29T00:21:24.452Z,19.50
2023-09-29T00:25:26.761Z,19.50
2023-09-29T00:29:28.115Z,19.50
2023-09-29T00:33:29.488Z,19.50
2023-09-29T00:37:30.953Z,19.50
2023-09-29T00:41:32.357Z,19.50
2023-09-29T00:45:35.638Z,19.40
2023-09-29T00:49:37.021Z,19.40
2023-09-29T00:53:39.035Z,19.50
2023-09-29T00:57:42.378Z,19.40
2023-09-29T01:01:43.760Z,19.30
2023-09-29T01:05:48.255Z,19.30
2023-09-29T01:09:49.659Z,19.30
2023-09-29T01:13:51.987Z,19.20
2023-09-29T01:17:53.352Z,19.20
2023-09-29T01:21:54.729Z,19.20
2023-09-29T01:25:56.065Z,19.10
2023-09-29T01:29:57.806Z,19.00
2023-09-29T01:34:09.030Z,19.10
2023-09-29T01:38:10.370Z,19.10
2023-09-29T01:42:11.749Z,19.00
2023-09-29T01:46:14.967Z,19.00
2023-09-29T01:50:19.769Z,18.80
2023-09-29T01:54:21.058Z,18.90
2023-09-29T01:58:23.488Z,18.80
2023-09-29T02:02:24.990Z,18.70
2023-09-29T02:06:27.627Z,18.80
2023-09-29T02:10:28.949Z,18.80
2023-09-29T02:14:30.693Z,18.70
2023-09-29T02:18:32.051Z,18.70
2023-09-29T02:22:33.429Z,18.80
2023-09-29T02:26:34.948Z,18.80
2023-09-29T02:30:37.055Z,18.80
2023-09-29T02:34:38.945Z,18.80
2023-09-29T02:38:40.448Z,18.80
2023-09-29T02:42:44.812Z,18.90
2023-09-29T02:46:46.214Z,19.00
2023-09-29T02:50:47.533Z,18.90
2023-09-29T02:54:50.310Z,19.00
2023-09-29T02:58:53.689Z,19.00
2023-09-29T03:02:55.374Z,19.10
2023-09-29T03:06:59.898Z,19.10
2023-09-29T03:11:06.049Z,19.10
2023-09-29T03:15:09.735Z,19.10
2023-09-29T03:19:11.182Z,19.10
2023-09-29T03:23:13.215Z,19.10
2023-09-29T03:27:14.576Z,19.20
2023-09-29T03:31:16.363Z,19.20
2023-09-29T03:35:17.985Z,19.30
2023-09-29T03:39:19.439Z,19.30
2023-09-29T03:43:22.637Z,19.40
2023-09-29T03:47:24.383Z,19.50
2023-09-29T03:51:26.687Z,19.50
2023-09-29T03:55:28.398Z,19.50
2023-09-29T03:59:30.140Z,19.50
2023-09-29T04:03:32.285Z,19.50
2023-09-29T04:07:36.934Z,19.50
2023-09-29T04:11:40.328Z,19.60
2023-09-29T04:15:44.909Z,19.60
2023-09-29T04:19:48.221Z,19.50
2023-09-29T04:23:50.422Z,19.40
2023-09-29T04:27:52.314Z,19.20
2023-09-29T04:31:54.571Z,19.20
2023-09-29T04:35:56.009Z,18.80
2023-09-29T04:39:58.406Z,18.60
2023-09-29T04:44:01.099Z,18.60
2023-09-29T04:48:03.439Z,18.80
2023-09-29T04:52:05.268Z,18.90
2023-09-29T04:56:06.564Z,18.80
2023-09-29T05:00:08.935Z,18.80
2023-09-29T05:04:10.416Z,18.80
2023-09-29T05:08:12.094Z,18.80
2023-09-29T05:12:13.502Z,18.60
2023-09-29T05:16:15.672Z,18.70
2023-09-29T05:20:17.417Z,18.80
2023-09-29T05:24:18.741Z,18.80
2023-09-29T05:28:20.068Z,18.80
2023-09-29T05:32:21.400Z,18.80
2023-09-29T05:36:22.921Z,18.90
2023-09-29T05:40:24.274Z,18.90
2023-09-29T05:44:27.493Z,19.00
2023-09-29T05:48:28.936Z,19.00
2023-09-29T05:52:30.398Z,19.00
2023-09-29T05:56:34.339Z,19.00
2023-09-29T06:00:35.871Z,19.00
2023-09-29T06:04:37.250Z,19.00
2023-09-29T06:12:42.029Z,19.20
2023-09-29T06:16:43.458Z,19.10
2023-09-29T06:20:44.874Z,19.20
2023-09-29T06:24:46.446Z,19.30
2023-09-29T06:28:47.776Z,19.40
2023-09-29T06:32:49.205Z,19.40
2023-09-29T06:36:50.710Z,19.30
2023-09-29T06:40:52.053Z,19.50
2023-09-29T06:44:53.508Z,19.70
2023-09-29T06:48:54.927Z,19.90
2023-09-29T06:52:56.334Z,20.50
2023-09-29T06:56:59.304Z,21.00
2023-09-29T07:01:02.711Z,21.40
2023-09-29T07:05:05.840Z,21.70
2023-09-29T07:09:08.004Z,22.00
2023-09-29T07:13:09.956Z,22.10
2023-09-29T07:17:11.754Z,22.40
2023-09-29T07:21:13.321Z,22.20
2023-09-29T07:25:14.850Z,22.30
2023-09-29T07:29:16.292Z,22.10
2023-09-29T07:33:17.924Z,22.30
2023-09-29T07:37:19.535Z,22.30
2023-09-29T07:41:21.145Z,22.70
2023-09-29T07:45:24.470Z,22.20
2023-09-29T07:49:25.830Z,22.60
2023-09-29T07:53:27.931Z,22.90
2023-09-29T07:57:29.997Z,23.10
2023-09-29T08:01:33.326Z,23.00
2023-09-29T08:05:37.277Z,23.10
2023-09-29T08:09:41.062Z,23.10
2023-09-29T08:13:43.095Z,22.80
2023-09-29T08:17:48.423Z,22.40
2023-09-29T08:21:50.220Z,22.80
2023-09-29T08:25:52.520Z,23.40
2023-09-29T08:29:55.979Z,24.10
2023-09-29T08:33:58.669Z,23.60
2023-09-29T08:38:01.143Z,23.70
2023-09-29T08:42:09.381Z,23.60
2023-09-29T08:46:14.501Z,23.70
2023-09-29T08:50:17.354Z,24.00
2023-09-29T08:54:20.620Z,24.00
2023-09-29T08:58:23.981Z,24.00
2023-09-29T09:02:25.348Z,24.40
2023-09-29T09:06:27.388Z,25.10
2023-09-29T09:10:34.124Z,25.50
2023-09-29T09:14:42.344Z,26.20
2023-09-29T09:18:43.835Z,26.40
2023-09-29T09:23:00.898Z,26.10
2023-09-29T09:27:03.381Z,26.80
2023-09-29T09:31:05.618Z,27.10
2023-09-29T09:35:07.641Z,27.60
2023-09-29T09:39:13.137Z,27.40
2023-09-29T09:43:15.064Z,26.90
2023-09-29T09:47:16.982Z,27.20
2023-09-29T09:51:37.458Z,27.40
2023-09-29T09:55:45.771Z,27.30
2023-09-29T09:59:47.862Z,27.40
2023-09-29T10:03:49.531Z,27.40
2023-09-29T10:07:59.278Z,26.80
2023-09-29T10:12:01.165Z,26.50
2023-09-29T10:16:04.477Z,26.90
2023-09-29T10:20:10.183Z,26.80
2023-09-29T10:24:14.232Z,26.40
2023-09-29T10:28:18.868Z,27.00
2023-09-29T10:32:25.814Z,27.70
2023-09-29T10:36:29.496Z,27.80
2023-09-29T10:40:34.076Z,28.30
2023-09-29T10:44:51.974Z,28.80
2023-09-29T10:48:58.124Z,28.40
2023-09-29T10:53:04.456Z,28.10
2023-09-29T10:57:05.682Z,28.50
2023-09-29T11:01:07.109Z,28.30
2023-09-29T11:05:10.127Z,28.50
2023-09-29T11:09:17.742Z,28.90
2023-09-29T11:13:19.937Z,29.10
2023-09-29T11:17:29.728Z,28.90
2023-09-29T11:21:36.998Z,29.10
2023-09-29T11:25:58.287Z,28.90
2023-09-29T11:30:01.586Z,29.00
2023-09-29T11:34:03.225Z,28.40
2023-09-29T11:38:06.539Z,27.70
2023-09-29T11:42:08.017Z,27.50
2023-09-29T11:46:15.857Z,27.50
2023-09-29T11:50:18.556Z,27.20
2023-09-29T11:54:19.945Z,27.40
2023-09-29T11:58:21.366Z,27.70
2023-09-29T12:02:23.299Z,28.30
2023-09-29T12:06:24.737Z,28.80
2023-09-29T12:10:26.156Z,28.30
2023-09-29T12:14:28.143Z,28.40
2023-09-29T12:18:30.447Z,28.10
2023-09-29T12:22:32.782Z,28.70
2023-09-29T12:26:35.059Z,29.10
2023-09-29T12:30:36.392Z,28.60
2023-09-29T12:34:37.825Z,28.50
2023-09-29T12:38:39.449Z,29.10
2023-09-29T12:42:45.067Z,29.40
2023-09-29T12:46:46.398Z,29.40
2023-09-29T12:50:48.763Z,28.40
2023-09-29T12:54:51.958Z,27.90
2023-09-29T12:58:55.712Z,28.00
2023-09-29T13:02:59.016Z,27.80
2023-09-29T13:07:00.397Z,27.20
2023-09-29T13:11:02.980Z,27.00
2023-09-29T13:15:06.631Z,26.50
2023-09-29T13:19:08.483Z,26.10
2023-09-29T13:23:09.805Z,25.90
2023-09-29T13:27:11.149Z,25.80
2023-09-29T13:31:12.513Z,25.50
2023-09-29T13:35:14.266Z,25.00
2023-09-29T13:39:15.656Z,24.60
2023-09-29T13:43:17.961Z,24.60
2023-09-29T13:47:19.329Z,24.40
2023-09-29T13:51:20.986Z,24.40
2023-09-29T13:55:22.306Z,24.60
2023-09-29T13:59:23.662Z,24.60
2023-09-29T14:03:25.444Z,24.60
2023-09-29T14:07:27.729Z,24.60
2023-09-29T14:11:29.094Z,24.60
2023-09-29T14:15:33.043Z,24.40
2023-09-29T14:19:34.587Z,24.70
2023-09-29T14:23:36.082Z,24.70
2023-09-29T14:27:37.561Z,24.60
2023-09-29T14:31:41.347Z,24.60
2023-09-29T14:35:48.964Z,24.70
2023-09-29T14:39:45.782Z,24.80
2023-09-29T14:43:47.267Z,24.80
2023-09-29T14:47:48.725Z,24.80
2023-09-29T14:51:50.173Z,24.70
2023-09-29T14:55:51.581Z,24.50
2023-09-29T14:59:53.005Z,24.50
2023-09-29T15:03:55.133Z,24.40
2023-09-29T15:07:56.753Z,24.30
2023-09-29T15:11:58.113Z,24.20
2023-09-29T15:15:59.935Z,24.20
2023-09-29T15:20:01.192Z,24.20
2023-09-29T15:24:03.805Z,24.10
2023-09-29T15:28:05.618Z,24.10
2023-09-29T15:32:07.431Z,24.30
2023-09-29T15:36:08.986Z,24.20
2023-09-29T15:40:13.312Z,24.20
2023-09-29T15:44:15.638Z,24.10
2023-09-29T15:48:17.132Z,23.80
2023-09-29T15:52:18.602Z,23.60
2023-09-29T15:56:19.952Z,23.40
2023-09-29T16:00:21.857Z,23.40
2023-09-29T16:04:24.079Z,23.40
2023-09-29T16:08:25.772Z,23.40
2023-09-29T16:12:27.379Z,23.20
2023-09-29T16:16:29.020Z,23.20
2023-09-29T16:20:30.384Z,23.10
2023-09-29T16:24:32.437Z,23.10
2023-09-29T16:28:33.800Z,23.10
2023-09-29T16:32:35.124Z,23.00
2023-09-29T16:36:36.483Z,23.00
2023-09-29T16:40:38.800Z,22.90
2023-09-29T16:44:40.141Z,23.10
2023-09-29T16:48:41.510Z,22.90
2023-09-29T16:52:42.953Z,22.90
2023-09-29T16:56:44.315Z,22.80
2023-09-29T17:00:45.696Z,22.80
2023-09-29T17:04:47.535Z,22.60
2023-09-29T17:08:49.574Z,22.70
2023-09-29T17:12:51.082Z,22.70
2023-09-29T17:16:55.509Z,22.70
2023-09-29T17:20:58.408Z,22.70
2023-09-29T17:24:59.737Z,22.60
2023-09-29T17:29:01.147Z,22.50
2023-09-29T17:33:02.780Z,22.60
2023-09-29T17:37:04.730Z,22.60
2023-09-29T17:41:06.545Z,22.70
2023-09-29T17:45:10.764Z,22.50
2023-09-29T17:49:12.582Z,22.60
2023-09-29T17:53:14.131Z,22.60
2023-09-29T17:57:17.454Z,22.60
2023-09-29T18:01:19.163Z,22.60
2023-09-29T18:05:20.556Z,22.60
2023-09-29T18:09:22.024Z,22.60
2023-09-29T18:13:25.403Z,22.40
2023-09-29T18:17:29.097Z,22.50
2023-09-29T18:21:30.179Z,22.40
2023-09-29T18:25:31.965Z,22.20
2023-09-29T18:29:33.317Z,22.20
2023-09-29T18:33:35.825Z,22.10
2023-09-29T18:37:37.254Z,22.20
2023-09-29T18:41:38.608Z,22.00
2023-09-29T18:45:39.954Z,21.70
2023-09-29T18:49:41.329Z,21.80
2023-09-29T18:53:42.956Z,21.90
2023-09-29T18:57:44.285Z,21.90
2023-09-29T19:01:45.836Z,21.90
2023-09-29T19:05:48.456Z,21.80
2023-09-29T19:09:49.877Z,21.70
2023-09-29T19:13:55.121Z,21.80
2023-09-29T19:17:56.859Z,21.50
2023-09-29T19:21:58.665Z,21.60
2023-09-29T19:26:04.809Z,21.50
2023-09-29T19:30:08.876Z,21.40
2023-09-29T19:34:10.854Z,21.40
2023-09-29T19:38:12.986Z,21.20
2023-09-29T19:42:14.661Z,21.30
2023-09-29T19:46:16.389Z,21.20
2023-09-29T19:50:20.209Z,21.20
2023-09-29T19:54:22.240Z,21.30
2023-09-29T19:58:23.797Z,21.40
2023-09-29T20:02:26.253Z,21.40
2023-09-29T20:06:27.885Z,21.50
2023-09-29T20:10:29.562Z,21.50
2023-09-29T20:14:31.105Z,21.50
2023-09-29T20:18:33.272Z,21.40
2023-09-29T20:22:34.795Z,20.70
2023-09-29T20:26:37.168Z,20.50
2023-09-29T20:30:40.619Z,20.30
2023-09-29T20:34:42.095Z,20.20
2023-09-29T20:38:43.955Z,20.20
2023-09-29T20:42:46.173Z,20.00
2023-09-29T20:46:47.748Z,19.80
2023-09-29T20:50:49.429Z,19.60
2023-09-29T20:54:51.451Z,19.50
2023-09-29T20:58:53.457Z,19.30
2023-09-29T21:02:55.800Z,19.20
2023-09-29T21:07:05.071Z,19.20
2023-09-29T21:11:06.488Z,19.00
2023-09-29T21:15:08.700Z,19.00
2023-09-29T21:19:10.720Z,18.90
2023-09-29T21:23:12.138Z,18.90
2023-09-29T21:27:15.137Z,18.90
2023-09-29T21:31:24.118Z,19.00
2023-09-29T21:35:28.585Z,19.00
2023-09-29T21:39:31.103Z,19.00
2023-09-29T21:43:32.871Z,19.20
2023-09-29T21:47:37.003Z,19.10
2023-09-29T21:51:40.302Z,19.20
2023-09-29T21:55:42.194Z,19.30
2023-09-29T21:59:43.863Z,19.20
2023-09-29T22:03:47.066Z,19.30
2023-09-29T22:07:52.350Z,19.30
2023-09-29T22:11:54.516Z,19.50
2023-09-29T22:15:55.943Z,19.50
2023-09-29T22:19:57.807Z,19.60
2023-09-29T22:23:59.271Z,19.60
2023-09-29T22:28:01.028Z,19.70
2023-09-29T22:32:03.223Z,19.80
2023-09-29T22:36:07.551Z,19.70
2023-09-29T22:40:12.045Z,19.70
2023-09-29T22:44:16.788Z,19.60
2023-09-29T22:48:19.991Z,19.60
2023-09-29T22:52:23.783Z,19.70
2023-09-29T22:56:25.472Z,19.50
2023-09-29T23:00:38.599Z,19.70
2023-09-29T23:04:42.408Z,19.70
2023-09-29T23:08:49.990Z,19.60
2023-09-29T23:12:51.785Z,19.60
2023-09-29T23:16:53.580Z,19.60
2023-09-29T23:20:55.097Z,19.60
2023-09-29T23:24:56.595Z,19.60
2023-09-29T23:28:58.525Z,19.50
2023-09-29T23:33:00.473Z,19.50
2023-09-29T23:37:02.269Z,19.50
2023-09-29T23:41:08.742Z,19.40
2023-09-29T23:45:10.415Z,19.30
2023-09-29T23:49:13.018Z,19.30
2023-09-29T23:53:14.336Z,19.20
2023-09-29T23:57:15.725Z,19.00
